createdAt,value
2022-08-03T00:02:20.538Z,3.83
2022-08-03T00:04:50.343Z,3.90
2022-08-03T00:07:18.941Z,4.00
2022-08-03T00:09:49.027Z,4.00
2022-08-03T00:12:18.315Z,5.43
2022-08-03T00:14:47.066Z,4.40
2022-08-03T00:17:15.763Z,4.30
2022-08-03T00:19:44.278Z,4.27
2022-08-03T00:22:12.898Z,4.10
2022-08-03T00:24:41.584Z,6.00
2022-08-03T00:27:11.561Z,6.30
2022-08-03T00:29:59.623Z,4.37
2022-08-03T00:32:28.801Z,4.30
2022-08-03T00:34:59.028Z,4.57
2022-08-03T00:37:40.695Z,4.67
2022-08-03T00:40:13.473Z,4.57
2022-08-03T00:42:52.044Z,4.60
2022-08-03T00:45:21.614Z,4.40
2022-08-03T00:47:50.770Z,6.10
2022-08-03T00:50:20.757Z,4.30
2022-08-03T00:52:49.959Z,4.23
2022-08-03T00:55:19.026Z,5.13
2022-08-03T00:57:49.318Z,4.60
2022-08-03T01:00:22.747Z,4.17
2022-08-03T01:02:52.058Z,4.43
2022-08-03T01:05:21.347Z,4.57
2022-08-03T01:08:01.561Z,4.50
2022-08-03T01:10:38.802Z,5.07
2022-08-03T01:14:01.898Z,4.17
2022-08-03T01:16:16.712Z,4.00
2022-08-03T01:18:53.887Z,6.27
2022-08-03T01:21:28.481Z,4.23
2022-08-03T01:24:07.701Z,6.43
2022-08-03T01:27:03.261Z,4.30
2022-08-03T01:29:55.302Z,4.70
2022-08-03T01:32:59.107Z,4.50
2022-08-03T01:35:38.320Z,4.57
2022-08-03T01:38:13.312Z,4.73
2022-08-03T01:40:44.597Z,5.87
2022-08-03T01:43:55.216Z,4.33
2022-08-03T01:46:09.305Z,4.80
2022-08-03T01:48:39.468Z,7.07
2022-08-03T01:51:09.357Z,5.10
2022-08-03T01:53:40.018Z,4.53
2022-08-03T01:56:09.861Z,6.40
2022-08-03T01:58:40.096Z,4.60
2022-08-03T02:01:11.509Z,8.50
2022-08-03T02:04:00.772Z,5.00
2022-08-03T02:07:01.548Z,4.97
2022-08-03T02:09:23.396Z,5.73
2022-08-03T02:11:53.691Z,4.50
2022-08-03T02:14:24.446Z,4.87
2022-08-03T02:16:55.757Z,5.03
2022-08-03T02:19:26.145Z,6.83
2022-08-03T02:21:57.250Z,6.30
2022-08-03T02:24:30.538Z,6.67
2022-08-03T02:27:00.705Z,6.50
2022-08-03T02:29:39.315Z,6.73
2022-08-03T02:32:18.527Z,6.27
2022-08-03T02:34:51.806Z,6.93
2022-08-03T02:37:24.285Z,6.10
2022-08-03T02:39:57.557Z,5.23
2022-08-03T02:42:28.130Z,5.53
2022-08-03T02:45:00.234Z,5.30
2022-08-03T02:47:53.329Z,5.20
2022-08-03T02:50:21.385Z,5.27
2022-08-03T02:52:51.004Z,4.77
2022-08-03T02:55:22.873Z,4.73
2022-08-03T02:57:52.891Z,5.63
2022-08-03T03:00:28.250Z,4.90
2022-08-03T03:03:00.969Z,5.60
2022-08-03T03:05:52.665Z,5.20
2022-08-03T03:08:26.027Z,5.17
2022-08-03T03:10:58.106Z,5.03
2022-08-03T03:13:28.200Z,6.50
2022-08-03T03:15:58.695Z,6.17
2022-08-03T03:18:32.823Z,5.20
2022-08-03T03:21:03.330Z,5.63
2022-08-03T03:23:34.003Z,5.23
2022-08-03T03:26:03.195Z,7.00
2022-08-03T03:28:33.256Z,5.70
2022-08-03T03:31:02.736Z,6.17
2022-08-03T03:33:32.850Z,5.93
2022-08-03T03:36:01.754Z,5.13
2022-08-03T03:38:30.662Z,5.43
2022-08-03T03:40:59.529Z,5.10
2022-08-03T03:43:29.524Z,5.60
2022-08-03T03:45:59.304Z,5.50
2022-08-03T03:48:27.979Z,7.00
2022-08-03T03:50:59.300Z,5.60
2022-08-03T03:53:27.866Z,6.03
2022-08-03T03:55:58.996Z,4.77
2022-08-03T03:58:31.786Z,5.57
2022-08-03T04:01:00.601Z,6.30
2022-08-03T04:03:29.669Z,6.33
2022-08-03T04:06:17.594Z,7.70
2022-08-03T04:09:04.282Z,7.67
2022-08-03T04:11:39.598Z,7.23
2022-08-03T04:14:12.159Z,7.27
2022-08-03T04:16:44.002Z,8.33
2022-08-03T04:19:19.772Z,6.57
2022-08-03T04:21:57.503Z,7.13
2022-08-03T04:24:28.431Z,7.20
2022-08-03T04:26:58.641Z,6.30
2022-08-03T04:29:30.300Z,7.97
2022-08-03T04:32:01.137Z,6.17
2022-08-03T04:34:34.743Z,7.00
2022-08-03T04:37:11.541Z,6.87
2022-08-03T04:39:43.281Z,5.83
2022-08-03T04:42:13.961Z,5.67
2022-08-03T04:44:45.576Z,6.27
2022-08-03T04:47:14.416Z,5.53
2022-08-03T04:49:43.937Z,6.13
2022-08-03T04:52:14.444Z,7.07
2022-08-03T04:54:50.060Z,6.83
2022-08-03T04:57:23.036Z,6.03
2022-08-03T05:00:02.552Z,8.23
2022-08-03T05:02:33.682Z,5.73
2022-08-03T05:05:02.176Z,7.60
2022-08-03T05:07:35.529Z,7.73
2022-08-03T05:10:14.938Z,8.07
2022-08-03T05:12:45.880Z,7.03
2022-08-03T05:15:14.581Z,7.50
2022-08-03T05:17:43.156Z,7.90
2022-08-03T05:20:12.815Z,7.47
2022-08-03T05:22:42.915Z,7.80
2022-08-03T05:25:17.255Z,8.40
2022-08-03T05:27:48.707Z,9.90
2022-08-03T05:30:27.215Z,6.93
2022-08-03T05:33:02.772Z,8.10
2022-08-03T05:35:56.839Z,6.87
2022-08-03T05:38:28.344Z,6.53
2022-08-03T05:41:21.999Z,10.17
2022-08-03T05:43:47.279Z,9.67
2022-08-03T05:46:16.192Z,5.90
2022-08-03T05:48:45.022Z,6.40
2022-08-03T05:51:13.788Z,6.20
2022-08-03T05:53:44.032Z,6.27
2022-08-03T05:56:15.304Z,7.83
2022-08-03T05:58:45.515Z,6.13
2022-08-03T06:01:14.165Z,6.10
2022-08-03T06:03:42.841Z,5.97
2022-08-03T06:06:11.794Z,6.90
2022-08-03T06:08:41.094Z,6.20
2022-08-03T06:11:11.168Z,5.83
2022-08-03T06:13:41.905Z,6.00
2022-08-03T06:16:11.478Z,7.60
2022-08-03T06:18:40.581Z,8.20
2022-08-03T06:21:15.637Z,6.17
2022-08-03T06:23:53.873Z,6.27
2022-08-03T06:26:27.940Z,6.57
2022-08-03T06:28:57.393Z,5.90
2022-08-03T06:31:33.288Z,7.73
2022-08-03T06:34:34.350Z,9.43
2022-08-03T06:36:53.008Z,5.97
2022-08-03T06:39:23.490Z,7.63
2022-08-03T06:41:54.698Z,7.15
2022-08-03T06:44:24.471Z,5.88
2022-08-03T06:46:53.173Z,9.63
2022-08-03T06:49:21.891Z,6.95
2022-08-03T06:52:03.250Z,7.68
2022-08-03T06:54:36.061Z,7.97
2022-08-03T06:57:08.436Z,6.80
2022-08-03T07:00:07.445Z,9.52
2022-08-03T07:02:28.206Z,7.15
2022-08-03T07:04:57.930Z,7.35
2022-08-03T07:07:26.571Z,12.65
2022-08-03T07:09:56.893Z,6.80
2022-08-03T07:12:29.388Z,6.93
2022-08-03T07:15:01.332Z,7.07
2022-08-03T07:17:31.890Z,6.60
2022-08-03T07:20:01.454Z,7.00
2022-08-03T07:22:30.138Z,8.93
2022-08-03T07:24:58.789Z,6.70
2022-08-03T07:27:29.653Z,7.28
2022-08-03T07:29:59.420Z,6.85
2022-08-03T07:32:31.174Z,6.15
2022-08-03T07:35:01.149Z,6.00
2022-08-03T07:37:31.108Z,5.93
2022-08-03T07:40:00.382Z,5.60
2022-08-03T07:42:31.001Z,9.27
2022-08-03T07:45:00.554Z,6.70
2022-08-03T07:47:35.546Z,5.97
2022-08-03T07:50:08.636Z,6.82
2022-08-03T07:52:50.726Z,6.68
2022-08-03T07:55:20.018Z,5.88
2022-08-03T07:58:00.245Z,5.85
2022-08-03T08:00:29.073Z,5.68
2022-08-03T08:02:57.569Z,5.20
2022-08-03T08:05:26.893Z,4.30
2022-08-03T08:07:55.643Z,5.53
2022-08-03T08:10:25.003Z,5.22
2022-08-03T08:12:55.158Z,5.43
2022-08-03T08:15:24.158Z,5.07
2022-08-03T08:17:54.512Z,5.30
2022-08-03T08:20:27.996Z,4.72
2022-08-03T08:22:58.467Z,5.22
2022-08-03T08:25:31.037Z,5.03
2022-08-03T08:28:29.875Z,5.13
2022-08-03T08:30:51.244Z,5.13
2022-08-03T08:33:22.950Z,9.23
2022-08-03T08:35:54.371Z,5.40
2022-08-03T08:38:23.909Z,5.45
2022-08-03T08:40:52.672Z,4.72
2022-08-03T08:43:22.726Z,5.10
2022-08-03T08:45:51.981Z,6.43
2022-08-03T08:48:25.767Z,5.05
2022-08-03T08:50:55.675Z,5.65
2022-08-03T08:53:27.663Z,5.55
2022-08-03T08:56:00.962Z,10.07
2022-08-03T08:58:39.147Z,4.50
2022-08-03T09:01:08.035Z,9.35
2022-08-03T09:03:36.615Z,8.40
2022-08-03T09:06:05.699Z,6.38
2022-08-03T09:08:34.861Z,4.10
2022-08-03T09:11:03.319Z,5.32
2022-08-03T09:13:35.061Z,7.13
2022-08-03T09:16:22.476Z,7.38
2022-08-03T09:18:53.302Z,6.57
2022-08-03T09:21:32.959Z,5.47
2022-08-03T09:24:06.338Z,6.85
2022-08-03T09:26:37.833Z,5.38
2022-08-03T09:29:14.047Z,4.10
2022-08-03T09:31:45.816Z,8.07
2022-08-03T09:34:16.967Z,4.90
2022-08-03T09:36:47.081Z,4.80
2022-08-03T09:39:18.414Z,4.75
2022-08-03T09:41:48.588Z,4.10
2022-08-03T09:44:25.254Z,4.00
2022-08-03T09:46:57.306Z,6.07
2022-08-03T09:49:26.571Z,4.15
2022-08-03T09:52:37.582Z,4.85
2022-08-03T09:54:45.599Z,6.47
2022-08-03T09:57:24.356Z,6.10
2022-08-03T10:00:04.674Z,9.85
2022-08-03T10:02:41.670Z,5.60
2022-08-03T10:05:17.515Z,4.55
2022-08-03T10:07:49.829Z,5.57
2022-08-03T10:10:30.318Z,5.70
2022-08-03T10:13:01.955Z,4.22
2022-08-03T10:16:24.942Z,7.50
2022-08-03T10:18:20.642Z,5.35
2022-08-03T10:20:54.257Z,5.00
2022-08-03T10:23:25.137Z,3.13
2022-08-03T10:25:59.755Z,6.10
2022-08-03T10:28:33.884Z,6.60
2022-08-03T10:31:07.806Z,5.47
2022-08-03T10:33:52.090Z,2.90
2022-08-03T10:36:25.367Z,4.32
2022-08-03T10:38:54.510Z,4.28
2022-08-03T10:41:24.950Z,6.57
2022-08-03T10:43:59.158Z,5.25
2022-08-03T10:46:29.929Z,3.35
2022-08-03T10:48:59.541Z,6.38
2022-08-03T10:51:32.220Z,2.58
2022-08-03T10:54:02.095Z,3.47
2022-08-03T10:57:06.322Z,3.45
2022-08-03T11:00:05.749Z,4.22
2022-08-03T11:03:08.791Z,2.60
2022-08-03T11:05:40.824Z,4.78
2022-08-03T11:08:29.711Z,3.40
2022-08-03T11:11:01.729Z,2.90
2022-08-03T11:13:34.060Z,2.40
2022-08-03T11:16:21.905Z,2.15
2022-08-03T11:18:59.987Z,3.00
2022-08-03T11:21:56.003Z,3.88
2022-08-03T11:24:58.745Z,5.88
2022-08-03T11:27:29.467Z,2.15
2022-08-03T11:30:00.432Z,3.95
2022-08-03T11:32:56.345Z,4.28
2022-08-03T11:35:29.104Z,3.42
2022-08-03T11:38:12.531Z,2.38
2022-08-03T11:40:45.242Z,2.08
2022-08-03T11:43:47.261Z,1.77
2022-08-03T11:46:28.762Z,2.17
2022-08-03T11:49:10.411Z,2.05
2022-08-03T11:51:42.005Z,2.30
2022-08-03T11:54:11.939Z,1.90
2022-08-03T11:56:49.905Z,2.95
2022-08-03T11:59:22.130Z,1.80
2022-08-03T12:01:52.020Z,3.45
2022-08-03T12:04:20.656Z,2.47
2022-08-03T12:07:03.955Z,2.03
2022-08-03T12:09:34.819Z,3.03
2022-08-03T12:12:04.994Z,1.67
2022-08-03T12:14:49.730Z,1.50
2022-08-03T12:17:21.434Z,3.00
2022-08-03T12:19:51.204Z,3.42
2022-08-03T12:22:34.169Z,2.35
2022-08-03T12:25:02.889Z,1.60
2022-08-03T12:27:31.716Z,2.25
2022-08-03T12:30:01.961Z,1.85
2022-08-03T12:32:31.570Z,3.20
2022-08-03T12:35:02.015Z,1.60
2022-08-03T12:37:31.156Z,1.60
2022-08-03T12:40:10.153Z,1.65
2022-08-03T12:42:41.212Z,1.65
2022-08-03T12:45:27.393Z,1.50
2022-08-03T12:47:58.098Z,1.80
2022-08-03T12:50:28.941Z,1.50
2022-08-03T12:52:58.559Z,1.60
2022-08-03T12:55:56.423Z,1.92
2022-08-03T12:58:33.961Z,1.75
2022-08-03T13:01:04.758Z,2.78
2022-08-03T13:03:43.229Z,2.13
2022-08-03T13:06:16.145Z,2.45
2022-08-03T13:08:46.854Z,1.50
2022-08-03T13:11:52.631Z,2.30
2022-08-03T13:14:16.900Z,1.70
2022-08-03T13:16:48.762Z,1.42
2022-08-03T13:19:18.546Z,1.55
2022-08-03T13:22:01.811Z,1.50
2022-08-03T13:24:34.525Z,2.55
2022-08-03T13:28:02.472Z,1.85
2022-08-03T13:29:55.666Z,2.38
2022-08-03T13:32:25.058Z,1.80
2022-08-03T13:34:53.520Z,2.33
2022-08-03T13:37:22.655Z,1.50
2022-08-03T13:39:59.675Z,1.55
2022-08-03T13:42:32.253Z,2.55
2022-08-03T13:45:02.065Z,1.83
2022-08-03T13:47:31.025Z,1.92
2022-08-03T13:50:02.465Z,3.33
2022-08-03T13:52:34.395Z,2.05
2022-08-03T13:55:05.182Z,1.90
2022-08-03T13:58:05.034Z,1.60
2022-08-03T14:00:29.034Z,1.67
2022-08-03T14:03:13.098Z,1.48
2022-08-03T14:05:44.093Z,1.60
2022-08-03T14:08:14.064Z,1.65
2022-08-03T14:10:45.260Z,1.40
2022-08-03T14:13:17.703Z,3.45
2022-08-03T14:15:50.183Z,3.28
2022-08-03T14:18:29.274Z,1.38
2022-08-03T14:21:05.831Z,1.60
2022-08-03T14:23:36.522Z,3.92
2022-08-03T14:26:06.692Z,1.60
2022-08-03T14:28:37.298Z,1.23
2022-08-03T14:31:08.545Z,3.38
2022-08-03T14:33:55.289Z,2.78
2022-08-03T14:36:23.861Z,1.60
2022-08-03T14:38:52.870Z,1.60
2022-08-03T14:41:21.594Z,1.17
2022-08-03T14:44:01.830Z,1.60
2022-08-03T14:46:32.203Z,1.50
2022-08-03T14:49:00.924Z,1.77
2022-08-03T14:51:51.438Z,3.25
2022-08-03T14:54:22.716Z,1.48
2022-08-03T14:56:51.498Z,1.98
2022-08-03T14:59:21.570Z,1.10
2022-08-03T15:02:04.510Z,1.30
2022-08-03T15:04:35.403Z,1.50
2022-08-03T15:07:04.198Z,1.70
2022-08-03T15:09:33.245Z,1.33
2022-08-03T15:12:02.662Z,1.60
2022-08-03T15:14:34.957Z,1.90
2022-08-03T15:17:07.130Z,1.50
2022-08-03T15:20:03.918Z,2.20
2022-08-03T15:22:25.417Z,1.65
2022-08-03T15:25:04.116Z,1.20
2022-08-03T15:28:03.565Z,2.35
2022-08-03T15:30:37.088Z,1.60
2022-08-03T15:33:06.099Z,2.42
2022-08-03T15:35:34.684Z,1.30
2022-08-03T15:38:08.770Z,1.40
2022-08-03T15:40:38.384Z,1.65
2022-08-03T15:43:06.980Z,1.50
2022-08-03T15:45:37.268Z,1.30
2022-08-03T15:48:06.653Z,1.48
2022-08-03T15:50:35.340Z,1.55
2022-08-03T15:53:03.965Z,1.48
2022-08-03T15:55:32.825Z,1.63
2022-08-03T15:59:03.435Z,1.25
2022-08-03T16:00:51.453Z,1.77
2022-08-03T16:03:20.097Z,1.60
2022-08-03T16:05:48.730Z,2.30
2022-08-03T16:08:17.318Z,1.50
2022-08-03T16:10:47.380Z,1.40
2022-08-03T16:13:17.253Z,1.77
2022-08-03T16:15:45.941Z,1.50
2022-08-03T16:18:16.085Z,2.90
2022-08-03T16:20:45.641Z,1.98
2022-08-03T16:23:15.874Z,1.40
2022-08-03T16:25:49.358Z,1.50
2022-08-03T16:28:20.621Z,1.30
2022-08-03T16:30:49.330Z,1.92
2022-08-03T16:33:19.076Z,2.28
2022-08-03T16:35:49.649Z,2.15
2022-08-03T16:38:19.400Z,2.05
2022-08-03T16:40:51.996Z,1.50
2022-08-03T16:43:23.540Z,1.38
2022-08-03T16:45:52.898Z,1.40
2022-08-03T16:48:22.875Z,1.50
2022-08-03T16:50:51.489Z,3.03
2022-08-03T16:53:51.632Z,1.40
2022-08-03T16:56:10.848Z,2.13
2022-08-03T16:58:42.879Z,1.65
2022-08-03T17:01:24.818Z,2.88
2022-08-03T17:04:03.463Z,1.67
2022-08-03T17:06:35.597Z,1.70
2022-08-03T17:09:08.795Z,2.35
2022-08-03T17:11:44.302Z,1.92
2022-08-03T17:14:16.474Z,6.25
2022-08-03T17:16:52.840Z,5.15
2022-08-03T17:19:26.466Z,3.10
2022-08-03T17:22:01.503Z,3.78
2022-08-03T17:24:34.540Z,5.97
2022-08-03T17:27:08.958Z,10.57
2022-08-03T17:29:49.104Z,3.20
2022-08-03T17:32:21.610Z,2.63
2022-08-03T17:34:51.780Z,2.05
2022-08-03T17:37:49.700Z,4.93
2022-08-03T17:40:15.906Z,2.08
2022-08-03T17:42:50.806Z,1.77
2022-08-03T17:45:20.985Z,3.63
2022-08-03T17:47:57.579Z,1.60
2022-08-03T17:50:40.388Z,1.83
2022-08-03T17:53:15.595Z,2.13
2022-08-03T17:56:06.585Z,3.35
2022-08-03T17:58:59.668Z,3.33
2022-08-03T18:01:59.655Z,3.00
2022-08-03T18:04:43.395Z,3.17
2022-08-03T18:07:41.066Z,2.67
2022-08-03T18:10:11.322Z,3.20
2022-08-03T18:12:52.222Z,2.47
2022-08-03T18:15:26.434Z,2.05
2022-08-03T18:20:48.540Z,1.90
2022-08-03T18:23:24.784Z,2.67
2022-08-03T18:26:07.119Z,4.15
2022-08-03T18:28:40.683Z,3.38
2022-08-03T18:31:13.061Z,3.25
2022-08-03T18:34:18.820Z,3.53
2022-08-03T18:36:54.750Z,3.28
2022-08-03T18:39:28.330Z,5.45
2022-08-03T18:41:59.572Z,2.17
2022-08-03T18:44:53.410Z,7.28
2022-08-03T18:47:50.800Z,10.80
2022-08-03T18:50:30.800Z,17.95
2022-08-03T18:53:15.561Z,14.95
2022-08-03T18:56:02.138Z,13.38
2022-08-03T18:58:38.761Z,12.35
2022-08-03T19:02:00.132Z,15.13
2022-08-03T19:04:11.168Z,7.18
2022-08-03T19:06:43.609Z,6.43
2022-08-03T19:09:21.850Z,9.65
2022-08-03T19:12:11.064Z,4.78
2022-08-03T19:14:48.789Z,7.68
2022-08-03T19:17:21.648Z,6.88
2022-08-03T19:19:53.004Z,6.07
2022-08-03T19:22:23.404Z,6.82
2022-08-03T19:24:55.401Z,4.30
2022-08-03T19:27:27.863Z,7.18
2022-08-03T19:30:02.025Z,9.82
2022-08-03T19:32:34.016Z,6.40
2022-08-03T19:35:05.647Z,5.68
2022-08-03T19:37:45.346Z,6.18
2022-08-03T19:40:14.533Z,5.07
2022-08-03T19:42:56.108Z,2.63
2022-08-03T19:46:05.077Z,7.43
2022-08-03T19:48:30.113Z,4.95
2022-08-03T19:51:00.244Z,5.05
2022-08-03T19:53:35.910Z,7.25
2022-08-03T19:56:25.418Z,5.78
2022-08-03T19:58:56.964Z,4.82
2022-08-03T20:01:28.166Z,6.40
2022-08-03T20:03:57.676Z,6.50
2022-08-03T20:06:27.042Z,6.30
2022-08-03T20:08:57.031Z,6.47
2022-08-03T20:11:29.031Z,7.93
2022-08-03T20:14:01.539Z,8.40
2022-08-03T20:16:33.991Z,7.97
2022-08-03T20:19:04.584Z,8.40
2022-08-03T20:21:45.715Z,6.45
2022-08-03T20:24:24.440Z,4.80
2022-08-03T20:26:56.724Z,3.90
2022-08-03T20:30:06.985Z,5.97
2022-08-03T20:32:24.802Z,3.00
2022-08-03T20:34:53.722Z,3.55
2022-08-03T20:37:24.280Z,4.65
2022-08-03T20:39:54.445Z,4.95
2022-08-03T20:42:23.803Z,3.80
2022-08-03T20:45:04.540Z,8.93
2022-08-03T20:47:36.381Z,4.65
2022-08-03T20:50:12.305Z,5.65
2022-08-03T20:52:43.977Z,3.88
2022-08-03T20:55:20.180Z,3.83
2022-08-03T20:57:51.802Z,4.57
2022-08-03T21:00:22.259Z,5.45
2022-08-03T21:03:02.936Z,4.20
2022-08-03T21:05:51.110Z,4.45
2022-08-03T21:08:23.611Z,4.60
2022-08-03T21:10:54.955Z,4.50
2022-08-03T21:13:05.402Z,1.92
2022-08-03T21:13:28.058Z,2.97
2022-08-03T21:16:12.309Z,4.60
2022-08-03T21:18:47.154Z,2.53
2022-08-03T21:21:18.006Z,3.22
2022-08-03T21:23:49.882Z,6.35
2022-08-03T21:26:19.384Z,4.95
2022-08-03T21:28:49.009Z,3.88
2022-08-03T21:31:25.692Z,5.50
2022-08-03T21:33:57.702Z,5.20
2022-08-03T21:36:28.920Z,2.85
2022-08-03T21:38:58.121Z,4.30
2022-08-03T21:41:27.736Z,3.75
2022-08-03T21:43:56.368Z,6.45
2022-08-03T21:46:29.149Z,3.78
2022-08-03T21:50:05.076Z,3.67
2022-08-03T21:51:51.765Z,2.90
2022-08-03T21:54:22.446Z,3.03
2022-08-03T21:56:55.761Z,4.10
2022-08-03T21:59:26.809Z,3.22
2022-08-03T22:01:58.620Z,5.93
2022-08-03T22:04:50.626Z,4.05
2022-08-03T22:07:19.302Z,4.82
2022-08-03T22:09:50.131Z,3.33
2022-08-03T22:12:23.941Z,5.97
2022-08-03T22:15:00.470Z,5.60
2022-08-03T22:17:55.787Z,4.90
2022-08-03T22:20:22.886Z,4.82
2022-08-03T22:22:57.173Z,2.78
2022-08-03T22:25:29.976Z,3.53
2022-08-03T22:28:00.892Z,7.30
2022-08-03T22:30:29.822Z,3.45
2022-08-03T22:33:00.999Z,6.05
2022-08-03T22:35:29.534Z,4.13
2022-08-03T22:37:59.901Z,6.70
2022-08-03T22:40:29.025Z,4.43
2022-08-03T22:42:58.086Z,4.63
2022-08-03T22:46:07.647Z,3.33
2022-08-03T22:48:18.082Z,3.67
2022-08-03T22:50:47.821Z,6.25
2022-08-03T22:53:19.299Z,3.88
2022-08-03T22:55:50.393Z,2.85
2022-08-03T22:58:21.140Z,4.00
2022-08-03T23:00:54.502Z,2.85
2022-08-03T23:04:01.282Z,3.22
2022-08-03T23:06:20.226Z,4.82
2022-08-03T23:08:50.697Z,3.15
2022-08-03T23:11:20.298Z,4.30
2022-08-03T23:13:58.051Z,3.70
2022-08-03T23:16:29.938Z,3.88
2022-08-03T23:19:03.449Z,5.05
2022-08-03T23:22:00.313Z,4.45
2022-08-03T23:24:31.292Z,3.92
2022-08-03T23:27:00.591Z,6.65
2022-08-03T23:29:31.552Z,5.78
2022-08-03T23:32:02.259Z,3.17
2022-08-03T23:34:58.742Z,5.15
2022-08-03T23:37:27.791Z,3.60
2022-08-03T23:39:59.563Z,5.97
2022-08-03T23:42:29.376Z,4.18
2022-08-03T23:45:05.723Z,3.60
2022-08-03T23:47:46.374Z,4.95
2022-08-03T23:50:17.604Z,4.85
2022-08-03T23:52:56.321Z,4.15
2022-08-03T23:55:40.534Z,3.83
2022-08-03T23:58:20.166Z,4.30
